sensor_id;sensor_type;location;lat;lon;timestamp;P1;durP1;ratioP1;P2;durP2;ratioP2
14251;SDS011;7210;51.502;10.722;2022-11-06T00:01:56;10.83;;;7.50;;
14251;SDS011;7210;51.502;10.722;2022-11-06T00:04:23;9.33;;;7.47;;
14251;SDS011;7210;51.502;10.722;2022-11-06T00:06:55;10.80;;;7.60;;
14251;SDS011;7210;51.502;10.722;2022-11-06T00:09:21;9.57;;;6.93;;
14251;SDS011;7210;51.502;10.722;2022-11-06T00:11:49;9.97;;;7.00;;
14251;SDS011;7210;51.502;10.722;2022-11-06T00:14:17;8.47;;;7.17;;
14251;SDS011;7210;51.502;10.722;2022-11-06T00:16:46;9.27;;;7.37;;
14251;SDS011;7210;51.502;10.722;2022-11-06T00:19:14;10.93;;;7.23;;
14251;SDS011;7210;51.502;10.722;2022-11-06T00:21:42;10.40;;;6.97;;
14251;SDS011;7210;51.502;10.722;2022-11-06T00:24:12;8.90;;;6.80;;
14251;SDS011;7210;51.502;10.722;2022-11-06T00:26:41;8.43;;;6.67;;
14251;SDS011;7210;51.502;10.722;2022-11-06T00:29:09;11.40;;;7.43;;
14251;SDS011;7210;51.502;10.722;2022-11-06T00:31:39;10.47;;;7.33;;
14251;SDS011;7210;51.502;10.722;2022-11-06T00:34:08;9.87;;;7.00;;
14251;SDS011;7210;51.502;10.722;2022-11-06T00:36:38;9.70;;;6.97;;
14251;SDS011;7210;51.502;10.722;2022-11-06T00:39:08;9.50;;;6.97;;
14251;SDS011;7210;51.502;10.722;2022-11-06T00:41:38;8.30;;;6.80;;
14251;SDS011;7210;51.502;10.722;2022-11-06T00:44:05;8.83;;;6.97;;
14251;SDS011;7210;51.502;10.722;2022-11-06T00:46:36;9.33;;;6.70;;
14251;SDS011;7210;51.502;10.722;2022-11-06T00:49:03;12.10;;;7.47;;
14251;SDS011;7210;51.502;10.722;2022-11-06T00:51:32;9.30;;;6.73;;
14251;SDS011;7210;51.502;10.722;2022-11-06T00:54:04;8.93;;;6.97;;
14251;SDS011;7210;51.502;10.722;2022-11-06T00:56:36;9.33;;;7.77;;
14251;SDS011;7210;51.502;10.722;2022-11-06T00:59:04;15.40;;;7.53;;
14251;SDS011;7210;51.502;10.722;2022-11-06T01:01:36;12.53;;;7.97;;
14251;SDS011;7210;51.502;10.722;2022-11-06T01:04:06;8.13;;;7.03;;
14251;SDS011;7210;51.502;10.722;2022-11-06T01:06:37;9.80;;;6.73;;
14251;SDS011;7210;51.502;10.722;2022-11-06T01:09:07;8.70;;;6.80;;
14251;SDS011;7210;51.502;10.722;2022-11-06T01:11:39;11.27;;;7.00;;
14251;SDS011;7210;51.502;10.722;2022-11-06T01:14:09;10.70;;;7.53;;
14251;SDS011;7210;51.502;10.722;2022-11-06T01:16:39;9.77;;;6.57;;
14251;SDS011;7210;51.502;10.722;2022-11-06T01:19:07;10.07;;;7.70;;
14251;SDS011;7210;51.502;10.722;2022-11-06T01:21:37;9.40;;;7.40;;
14251;SDS011;7210;51.502;10.722;2022-11-06T01:24:09;8.73;;;7.33;;
14251;SDS011;7210;51.502;10.722;2022-11-06T01:26:42;11.80;;;8.07;;
14251;SDS011;7210;51.502;10.722;2022-11-06T01:29:11;10.13;;;7.87;;
14251;SDS011;7210;51.502;10.722;2022-11-06T01:31:41;10.97;;;7.70;;
14251;SDS011;7210;51.502;10.722;2022-11-06T01:34:09;11.23;;;7.37;;
14251;SDS011;7210;51.502;10.722;2022-11-06T01:36:38;7.53;;;6.53;;
14251;SDS011;7210;51.502;10.722;2022-11-06T01:39:05;10.03;;;6.47;;
14251;SDS011;7210;51.502;10.722;2022-11-06T01:41:40;8.73;;;6.77;;
14251;SDS011;7210;51.502;10.722;2022-11-06T01:47:35;7.70;;;6.23;;
14251;SDS011;7210;51.502;10.722;2022-11-06T01:50:04;11.03;;;7.10;;
14251;SDS011;7210;51.502;10.722;2022-11-06T01:52:35;9.37;;;6.63;;
14251;SDS011;7210;51.502;10.722;2022-11-06T01:55:06;12.50;;;7.23;;
14251;SDS011;7210;51.502;10.722;2022-11-06T01:57:41;10.60;;;7.00;;
14251;SDS011;7210;51.502;10.722;2022-11-06T02:00:09;9.87;;;6.40;;
14251;SDS011;7210;51.502;10.722;2022-11-06T02:02:38;12.40;;;8.60;;
14251;SDS011;7210;51.502;10.722;2022-11-06T02:05:07;11.33;;;7.70;;
14251;SDS011;7210;51.502;10.722;2022-11-06T02:07:34;9.23;;;7.03;;
14251;SDS011;7210;51.502;10.722;2022-11-06T02:10:03;10.13;;;7.43;;
14251;SDS011;7210;51.502;10.722;2022-11-06T02:12:41;6.87;;;6.03;;
14251;SDS011;7210;51.502;10.722;2022-11-06T02:15:19;8.13;;;6.30;;
14251;SDS011;7210;51.502;10.722;2022-11-06T02:18:06;8.90;;;7.03;;
14251;SDS011;7210;51.502;10.722;2022-11-06T02:24:18;11.57;;;7.33;;
14251;SDS011;7210;51.502;10.722;2022-11-06T02:27:18;14.70;;;8.13;;
14251;SDS011;7210;51.502;10.722;2022-11-06T02:29:49;11.53;;;8.67;;
14251;SDS011;7210;51.502;10.722;2022-11-06T02:32:25;11.90;;;8.37;;
14251;SDS011;7210;51.502;10.722;2022-11-06T02:35:01;14.03;;;9.23;;
14251;SDS011;7210;51.502;10.722;2022-11-06T02:37:42;16.57;;;10.70;;
14251;SDS011;7210;51.502;10.722;2022-11-06T02:40:12;13.50;;;10.37;;
14251;SDS011;7210;51.502;10.722;2022-11-06T02:42:46;14.63;;;11.23;;
14251;SDS011;7210;51.502;10.722;2022-11-06T02:45:19;17.93;;;11.40;;
14251;SDS011;7210;51.502;10.722;2022-11-06T02:47:50;17.17;;;11.80;;
14251;SDS011;7210;51.502;10.722;2022-11-06T02:50:22;14.10;;;10.63;;
14251;SDS011;7210;51.502;10.722;2022-11-06T02:52:56;13.97;;;10.80;;
14251;SDS011;7210;51.502;10.722;2022-11-06T02:55:28;14.20;;;9.80;;
14251;SDS011;7210;51.502;10.722;2022-11-06T02:58:04;13.03;;;9.87;;
14251;SDS011;7210;51.502;10.722;2022-11-06T03:00:38;13.43;;;9.97;;
14251;SDS011;7210;51.502;10.722;2022-11-06T03:03:09;16.50;;;9.97;;
14251;SDS011;7210;51.502;10.722;2022-11-06T03:05:45;13.07;;;10.03;;
14251;SDS011;7210;51.502;10.722;2022-11-06T03:08:23;9.20;;;8.27;;
14251;SDS011;7210;51.502;10.722;2022-11-06T03:10:57;11.97;;;8.40;;
14251;SDS011;7210;51.502;10.722;2022-11-06T03:13:48;10.07;;;8.43;;
14251;SDS011;7210;51.502;10.722;2022-11-06T03:16:26;10.07;;;8.43;;
14251;SDS011;7210;51.502;10.722;2022-11-06T03:19:04;11.73;;;9.27;;
14251;SDS011;7210;51.502;10.722;2022-11-06T03:21:40;10.50;;;7.77;;
14251;SDS011;7210;51.502;10.722;2022-11-06T03:24:21;10.93;;;9.07;;
14251;SDS011;7210;51.502;10.722;2022-11-06T03:26:57;11.93;;;8.80;;
14251;SDS011;7210;51.502;10.722;2022-11-06T03:29:35;12.47;;;9.03;;
14251;SDS011;7210;51.502;10.722;2022-11-06T03:32:12;10.43;;;8.80;;
14251;SDS011;7210;51.502;10.722;2022-11-06T03:34:47;11.93;;;8.83;;
14251;SDS011;7210;51.502;10.722;2022-11-06T03:37:21;11.70;;;8.73;;
14251;SDS011;7210;51.502;10.722;2022-11-06T03:39:56;12.23;;;8.40;;
14251;SDS011;7210;51.502;10.722;2022-11-06T03:42:31;11.87;;;8.37;;
14251;SDS011;7210;51.502;10.722;2022-11-06T03:45:01;9.37;;;8.03;;
14251;SDS011;7210;51.502;10.722;2022-11-06T03:47:36;12.27;;;8.10;;
14251;SDS011;7210;51.502;10.722;2022-11-06T03:50:10;9.43;;;7.30;;
14251;SDS011;7210;51.502;10.722;2022-11-06T03:52:45;9.87;;;7.87;;
14251;SDS011;7210;51.502;10.722;2022-11-06T03:55:21;13.17;;;8.80;;
14251;SDS011;7210;51.502;10.722;2022-11-06T03:57:56;9.47;;;7.87;;
14251;SDS011;7210;51.502;10.722;2022-11-06T04:00:32;10.97;;;8.13;;
14251;SDS011;7210;51.502;10.722;2022-11-06T04:03:05;11.43;;;8.43;;
14251;SDS011;7210;51.502;10.722;2022-11-06T04:05:43;11.67;;;8.27;;
14251;SDS011;7210;51.502;10.722;2022-11-06T04:08:19;11.60;;;8.37;;
14251;SDS011;7210;51.502;10.722;2022-11-06T04:11:09;10.30;;;8.50;;
14251;SDS011;7210;51.502;10.722;2022-11-06T04:14:00;13.67;;;8.57;;
14251;SDS011;7210;51.502;10.722;2022-11-06T04:16:32;10.43;;;8.43;;
14251;SDS011;7210;51.502;10.722;2022-11-06T04:19:05;13.03;;;8.50;;
14251;SDS011;7210;51.502;10.722;2022-11-06T04:21:42;11.40;;;8.30;;
14251;SDS011;7210;51.502;10.722;2022-11-06T04:24:30;11.27;;;8.60;;
14251;SDS011;7210;51.502;10.722;2022-11-06T04:27:33;14.07;;;9.00;;
14251;SDS011;7210;51.502;10.722;2022-11-06T04:30:21;15.47;;;9.77;;
14251;SDS011;7210;51.502;10.722;2022-11-06T04:32:53;12.03;;;8.37;;
14251;SDS011;7210;51.502;10.722;2022-11-06T04:35:36;9.23;;;7.97;;
14251;SDS011;7210;51.502;10.722;2022-11-06T04:38:22;10.07;;;8.03;;
14251;SDS011;7210;51.502;10.722;2022-11-06T04:41:04;10.40;;;7.93;;
14251;SDS011;7210;51.502;10.722;2022-11-06T04:43:46;11.63;;;8.70;;
14251;SDS011;7210;51.502;10.722;2022-11-06T04:46:20;11.37;;;8.40;;
14251;SDS011;7210;51.502;10.722;2022-11-06T04:48:54;12.63;;;8.50;;
14251;SDS011;7210;51.502;10.722;2022-11-06T04:51:24;9.53;;;7.90;;
14251;SDS011;7210;51.502;10.722;2022-11-06T04:53:57;10.17;;;8.43;;
14251;SDS011;7210;51.502;10.722;2022-11-06T04:56:26;9.87;;;7.97;;
14251;SDS011;7210;51.502;10.722;2022-11-06T04:58:57;10.53;;;8.27;;
14251;SDS011;7210;51.502;10.722;2022-11-06T05:01:24;10.50;;;8.03;;
14251;SDS011;7210;51.502;10.722;2022-11-06T05:03:53;10.60;;;8.87;;
14251;SDS011;7210;51.502;10.722;2022-11-06T05:06:21;9.87;;;8.03;;
14251;SDS011;7210;51.502;10.722;2022-11-06T05:08:48;11.67;;;9.33;;
14251;SDS011;7210;51.502;10.722;2022-11-06T05:11:15;10.70;;;8.37;;
14251;SDS011;7210;51.502;10.722;2022-11-06T05:13:43;9.60;;;8.30;;
14251;SDS011;7210;51.502;10.722;2022-11-06T05:16:10;11.33;;;8.37;;
14251;SDS011;7210;51.502;10.722;2022-11-06T05:18:37;9.77;;;8.00;;
14251;SDS011;7210;51.502;10.722;2022-11-06T05:21:06;9.50;;;8.00;;
14251;SDS011;7210;51.502;10.722;2022-11-06T05:23:50;12.70;;;8.57;;
14251;SDS011;7210;51.502;10.722;2022-11-06T05:26:18;14.50;;;8.17;;
14251;SDS011;7210;51.502;10.722;2022-11-06T05:28:45;12.10;;;8.10;;
14251;SDS011;7210;51.502;10.722;2022-11-06T05:31:12;12.60;;;8.70;;
14251;SDS011;7210;51.502;10.722;2022-11-06T05:33:40;9.67;;;8.10;;
14251;SDS011;7210;51.502;10.722;2022-11-06T05:36:09;12.57;;;8.10;;
14251;SDS011;7210;51.502;10.722;2022-11-06T05:38:36;12.37;;;9.13;;
14251;SDS011;7210;51.502;10.722;2022-11-06T05:41:03;8.93;;;7.13;;
14251;SDS011;7210;51.502;10.722;2022-11-06T05:43:34;10.53;;;8.53;;
14251;SDS011;7210;51.502;10.722;2022-11-06T05:46:02;9.73;;;8.10;;
14251;SDS011;7210;51.502;10.722;2022-11-06T05:48:30;11.63;;;7.90;;
14251;SDS011;7210;51.502;10.722;2022-11-06T05:51:00;12.03;;;8.83;;
14251;SDS011;7210;51.502;10.722;2022-11-06T05:53:30;10.33;;;8.07;;
14251;SDS011;7210;51.502;10.722;2022-11-06T05:56:05;12.10;;;8.40;;
14251;SDS011;7210;51.502;10.722;2022-11-06T05:58:33;9.87;;;7.47;;
14251;SDS011;7210;51.502;10.722;2022-11-06T06:01:00;11.07;;;8.80;;
14251;SDS011;7210;51.502;10.722;2022-11-06T06:03:28;10.67;;;8.33;;
14251;SDS011;7210;51.502;10.722;2022-11-06T06:05:55;14.33;;;8.43;;
14251;SDS011;7210;51.502;10.722;2022-11-06T06:08:22;10.77;;;8.53;;
14251;SDS011;7210;51.502;10.722;2022-11-06T06:10:51;10.03;;;8.30;;
14251;SDS011;7210;51.502;10.722;2022-11-06T06:13:18;10.67;;;7.63;;
14251;SDS011;7210;51.502;10.722;2022-11-06T06:15:46;11.53;;;8.37;;
14251;SDS011;7210;51.502;10.722;2022-11-06T06:18:13;9.80;;;8.30;;
14251;SDS011;7210;51.502;10.722;2022-11-06T06:20:40;11.93;;;9.03;;
14251;SDS011;7210;51.502;10.722;2022-11-06T06:23:08;12.43;;;8.17;;
14251;SDS011;7210;51.502;10.722;2022-11-06T06:25:35;9.97;;;7.63;;
14251;SDS011;7210;51.502;10.722;2022-11-06T06:28:04;14.60;;;8.73;;
14251;SDS011;7210;51.502;10.722;2022-11-06T06:30:31;9.53;;;7.97;;
14251;SDS011;7210;51.502;10.722;2022-11-06T06:33:05;12.47;;;8.40;;
14251;SDS011;7210;51.502;10.722;2022-11-06T06:35:32;13.53;;;9.17;;
14251;SDS011;7210;51.502;10.722;2022-11-06T06:38:00;16.93;;;10.07;;
14251;SDS011;7210;51.502;10.722;2022-11-06T06:40:27;13.63;;;11.47;;
14251;SDS011;7210;51.502;10.722;2022-11-06T06:42:55;12.20;;;10.90;;
14251;SDS011;7210;51.502;10.722;2022-11-06T06:45:24;12.33;;;10.53;;
14251;SDS011;7210;51.502;10.722;2022-11-06T06:47:52;11.13;;;9.10;;
14251;SDS011;7210;51.502;10.722;2022-11-06T06:50:19;11.23;;;9.90;;
14251;SDS011;7210;51.502;10.722;2022-11-06T06:52:46;11.80;;;9.40;;
14251;SDS011;7210;51.502;10.722;2022-11-06T06:55:14;11.77;;;9.70;;
14251;SDS011;7210;51.502;10.722;2022-11-06T06:57:41;12.80;;;10.57;;
14251;SDS011;7210;51.502;10.722;2022-11-06T07:00:09;11.10;;;9.60;;
14251;SDS011;7210;51.502;10.722;2022-11-06T07:02:38;10.93;;;9.30;;
14251;SDS011;7210;51.502;10.722;2022-11-06T07:05:06;10.97;;;9.33;;
14251;SDS011;7210;51.502;10.722;2022-11-06T07:07:33;12.03;;;9.63;;
14251;SDS011;7210;51.502;10.722;2022-11-06T07:10:01;11.23;;;8.70;;
14251;SDS011;7210;51.502;10.722;2022-11-06T07:12:29;13.53;;;8.63;;
14251;SDS011;7210;51.502;10.722;2022-11-06T07:14:56;12.30;;;8.37;;
14251;SDS011;7210;51.502;10.722;2022-11-06T07:17:24;11.03;;;8.37;;
14251;SDS011;7210;51.502;10.722;2022-11-06T07:19:52;10.77;;;8.77;;
14251;SDS011;7210;51.502;10.722;2022-11-06T07:22:20;9.67;;;8.67;;
14251;SDS011;7210;51.502;10.722;2022-11-06T07:24:47;12.30;;;8.67;;
14251;SDS011;7210;51.502;10.722;2022-11-06T07:27:14;10.73;;;9.13;;
14251;SDS011;7210;51.502;10.722;2022-11-06T07:29:41;9.53;;;8.33;;
14251;SDS011;7210;51.502;10.722;2022-11-06T07:32:09;15.23;;;8.83;;
14251;SDS011;7210;51.502;10.722;2022-11-06T07:34:36;15.17;;;9.00;;
14251;SDS011;7210;51.502;10.722;2022-11-06T07:37:05;10.80;;;9.10;;
14251;SDS011;7210;51.502;10.722;2022-11-06T07:39:33;12.27;;;9.10;;
14251;SDS011;7210;51.502;10.722;2022-11-06T07:42:00;13.20;;;8.67;;
14251;SDS011;7210;51.502;10.722;2022-11-06T07:44:33;10.70;;;8.80;;
14251;SDS011;7210;51.502;10.722;2022-11-06T07:47:01;10.73;;;8.30;;
14251;SDS011;7210;51.502;10.722;2022-11-06T07:49:28;10.67;;;8.63;;
14251;SDS011;7210;51.502;10.722;2022-11-06T07:51:56;10.60;;;8.00;;
14251;SDS011;7210;51.502;10.722;2022-11-06T07:54:24;10.80;;;8.07;;
14251;SDS011;7210;51.502;10.722;2022-11-06T07:56:52;11.57;;;9.27;;
14251;SDS011;7210;51.502;10.722;2022-11-06T07:59:19;10.30;;;8.97;;
14251;SDS011;7210;51.502;10.722;2022-11-06T08:01:46;13.30;;;8.50;;
14251;SDS011;7210;51.502;10.722;2022-11-06T08:04:13;13.20;;;9.57;;
14251;SDS011;7210;51.502;10.722;2022-11-06T08:06:41;10.63;;;9.50;;
14251;SDS011;7210;51.502;10.722;2022-11-06T08:09:08;16.20;;;11.65;;
14251;SDS011;7210;51.502;10.722;2022-11-06T08:11:37;15.35;;;10.70;;
14251;SDS011;7210;51.502;10.722;2022-11-06T08:14:04;13.97;;;10.07;;
14251;SDS011;7210;51.502;10.722;2022-11-06T08:16:31;11.53;;;9.30;;
14251;SDS011;7210;51.502;10.722;2022-11-06T08:18:58;12.33;;;9.33;;
14251;SDS011;7210;51.502;10.722;2022-11-06T08:21:28;12.93;;;9.10;;
14251;SDS011;7210;51.502;10.722;2022-11-06T08:24:04;16.27;;;12.07;;
14251;SDS011;7210;51.502;10.722;2022-11-06T08:26:32;112.03;;;77.40;;
14251;SDS011;7210;51.502;10.722;2022-11-06T08:29:01;85.03;;;61.63;;
14251;SDS011;7210;51.502;10.722;2022-11-06T08:31:28;28.07;;;22.67;;
14251;SDS011;7210;51.502;10.722;2022-11-06T08:33:58;55.20;;;33.80;;
14251;SDS011;7210;51.502;10.722;2022-11-06T08:36:26;30.20;;;19.90;;
14251;SDS011;7210;51.502;10.722;2022-11-06T08:38:53;48.47;;;18.20;;
14251;SDS011;7210;51.502;10.722;2022-11-06T08:41:20;31.10;;;15.53;;
14251;SDS011;7210;51.502;10.722;2022-11-06T08:43:49;36.13;;;14.73;;
14251;SDS011;7210;51.502;10.722;2022-11-06T08:46:18;21.93;;;11.83;;
14251;SDS011;7210;51.502;10.722;2022-11-06T08:48:46;12.40;;;10.57;;
14251;SDS011;7210;51.502;10.722;2022-11-06T08:51:13;16.70;;;9.90;;
14251;SDS011;7210;51.502;10.722;2022-11-06T08:53:40;13.20;;;9.67;;
14251;SDS011;7210;51.502;10.722;2022-11-06T08:56:08;13.23;;;6.47;;
14251;SDS011;7210;51.502;10.722;2022-11-06T08:58:35;11.67;;;7.67;;
14251;SDS011;7210;51.502;10.722;2022-11-06T09:01:02;10.43;;;5.53;;
14251;SDS011;7210;51.502;10.722;2022-11-06T09:03:31;11.40;;;4.23;;
14251;SDS011;7210;51.502;10.722;2022-11-06T09:05:58;8.50;;;3.77;;
14251;SDS011;7210;51.502;10.722;2022-11-06T09:08:25;7.23;;;3.47;;
14251;SDS011;7210;51.502;10.722;2022-11-06T09:10:53;7.70;;;3.77;;
14251;SDS011;7210;51.502;10.722;2022-11-06T09:13:20;5.47;;;3.20;;
14251;SDS011;7210;51.502;10.722;2022-11-06T09:15:47;7.30;;;3.13;;
14251;SDS011;7210;51.502;10.722;2022-11-06T09:18:15;7.53;;;3.33;;
14251;SDS011;7210;51.502;10.722;2022-11-06T09:20:43;7.70;;;3.70;;
14251;SDS011;7210;51.502;10.722;2022-11-06T09:23:11;5.83;;;3.60;;
14251;SDS011;7210;51.502;10.722;2022-11-06T09:25:38;7.93;;;3.10;;
14251;SDS011;7210;51.502;10.722;2022-11-06T09:28:06;6.83;;;3.30;;
14251;SDS011;7210;51.502;10.722;2022-11-06T09:30:33;6.27;;;3.13;;
14251;SDS011;7210;51.502;10.722;2022-11-06T09:33:01;5.37;;;3.30;;
14251;SDS011;7210;51.502;10.722;2022-11-06T09:35:29;7.20;;;3.27;;
14251;SDS011;7210;51.502;10.722;2022-11-06T09:38:01;4.33;;;3.17;;
14251;SDS011;7210;51.502;10.722;2022-11-06T09:40:35;4.83;;;2.73;;
14251;SDS011;7210;51.502;10.722;2022-11-06T09:46:18;7.30;;;2.80;;
14251;SDS011;7210;51.502;10.722;2022-11-06T09:48:51;4.27;;;2.73;;
14251;SDS011;7210;51.502;10.722;2022-11-06T09:51:30;7.60;;;3.57;;
14251;SDS011;7210;51.502;10.722;2022-11-06T09:54:08;5.27;;;2.80;;
14251;SDS011;7210;51.502;10.722;2022-11-06T09:56:41;5.33;;;2.87;;
14251;SDS011;7210;51.502;10.722;2022-11-06T09:59:14;6.63;;;2.70;;
14251;SDS011;7210;51.502;10.722;2022-11-06T10:01:46;4.30;;;2.70;;
14251;SDS011;7210;51.502;10.722;2022-11-06T10:04:24;5.47;;;2.87;;
14251;SDS011;7210;51.502;10.722;2022-11-06T10:07:03;6.33;;;2.80;;
14251;SDS011;7210;51.502;10.722;2022-11-06T10:09:48;5.27;;;2.73;;
14251;SDS011;7210;51.502;10.722;2022-11-06T10:12:16;6.40;;;2.87;;
14251;SDS011;7210;51.502;10.722;2022-11-06T10:14:57;4.60;;;2.63;;
14251;SDS011;7210;51.502;10.722;2022-11-06T10:17:43;4.97;;;2.70;;
14251;SDS011;7210;51.502;10.722;2022-11-06T10:20:24;5.83;;;2.97;;
14251;SDS011;7210;51.502;10.722;2022-11-06T10:23:03;5.80;;;2.67;;
14251;SDS011;7210;51.502;10.722;2022-11-06T10:25:53;6.10;;;2.70;;
14251;SDS011;7210;51.502;10.722;2022-11-06T10:28:42;4.83;;;2.83;;
14251;SDS011;7210;51.502;10.722;2022-11-06T10:31:31;5.30;;;3.00;;
14251;SDS011;7210;51.502;10.722;2022-11-06T10:34:29;5.13;;;3.10;;
14251;SDS011;7210;51.502;10.722;2022-11-06T10:37:03;6.13;;;2.93;;
14251;SDS011;7210;51.502;10.722;2022-11-06T10:39:40;5.43;;;2.60;;
14251;SDS011;7210;51.502;10.722;2022-11-06T10:42:18;7.57;;;2.83;;
14251;SDS011;7210;51.502;10.722;2022-11-06T10:44:55;4.97;;;2.93;;
14251;SDS011;7210;51.502;10.722;2022-11-06T10:47:35;6.50;;;2.60;;
14251;SDS011;7210;51.502;10.722;2022-11-06T10:50:10;6.33;;;2.57;;
14251;SDS011;7210;51.502;10.722;2022-11-06T10:52:43;5.87;;;2.63;;
14251;SDS011;7210;51.502;10.722;2022-11-06T10:55:40;6.67;;;2.80;;
14251;SDS011;7210;51.502;10.722;2022-11-06T10:58:33;5.27;;;2.47;;
14251;SDS011;7210;51.502;10.722;2022-11-06T11:03:49;5.57;;;2.43;;
14251;SDS011;7210;51.502;10.722;2022-11-06T11:06:17;4.93;;;2.80;;
14251;SDS011;7210;51.502;10.722;2022-11-06T11:08:47;6.77;;;3.00;;
14251;SDS011;7210;51.502;10.722;2022-11-06T11:11:23;6.57;;;2.97;;
14251;SDS011;7210;51.502;10.722;2022-11-06T11:14:13;7.33;;;2.40;;
14251;SDS011;7210;51.502;10.722;2022-11-06T11:16:50;4.63;;;2.50;;
14251;SDS011;7210;51.502;10.722;2022-11-06T11:19:23;5.37;;;2.47;;
14251;SDS011;7210;51.502;10.722;2022-11-06T11:22:01;3.90;;;2.67;;
14251;SDS011;7210;51.502;10.722;2022-11-06T11:24:43;4.97;;;2.47;;
14251;SDS011;7210;51.502;10.722;2022-11-06T11:27:27;3.50;;;2.30;;
14251;SDS011;7210;51.502;10.722;2022-11-06T11:29:58;5.03;;;2.37;;
14251;SDS011;7210;51.502;10.722;2022-11-06T11:32:28;4.90;;;2.43;;
14251;SDS011;7210;51.502;10.722;2022-11-06T11:34:56;4.50;;;2.30;;
14251;SDS011;7210;51.502;10.722;2022-11-06T11:37:24;3.73;;;2.20;;
14251;SDS011;7210;51.502;10.722;2022-11-06T11:39:55;4.93;;;2.13;;
14251;SDS011;7210;51.502;10.722;2022-11-06T11:43:08;4.87;;;2.17;;
14251;SDS011;7210;51.502;10.722;2022-11-06T11:46:01;2.67;;;2.00;;
14251;SDS011;7210;51.502;10.722;2022-11-06T11:48:43;3.87;;;1.87;;
14251;SDS011;7210;51.502;10.722;2022-11-06T11:51:15;3.57;;;1.90;;
14251;SDS011;7210;51.502;10.722;2022-11-06T11:53:59;3.83;;;1.93;;
14251;SDS011;7210;51.502;10.722;2022-11-06T11:56:43;4.17;;;1.90;;
14251;SDS011;7210;51.502;10.722;2022-11-06T11:59:16;5.50;;;2.13;;
14251;SDS011;7210;51.502;10.722;2022-11-06T12:01:48;5.17;;;2.20;;
14251;SDS011;7210;51.502;10.722;2022-11-06T12:04:20;3.53;;;2.00;;
14251;SDS011;7210;51.502;10.722;2022-11-06T12:06:54;4.73;;;2.27;;
14251;SDS011;7210;51.502;10.722;2022-11-06T12:09:26;5.03;;;2.10;;
14251;SDS011;7210;51.502;10.722;2022-11-06T12:11:57;2.97;;;1.87;;
14251;SDS011;7210;51.502;10.722;2022-11-06T12:14:29;2.83;;;2.00;;
14251;SDS011;7210;51.502;10.722;2022-11-06T12:17:14;2.77;;;2.00;;
14251;SDS011;7210;51.502;10.722;2022-11-06T12:19:48;3.83;;;2.10;;
14251;SDS011;7210;51.502;10.722;2022-11-06T12:22:22;3.60;;;2.20;;
14251;SDS011;7210;51.502;10.722;2022-11-06T12:24:58;6.30;;;1.90;;
14251;SDS011;7210;51.502;10.722;2022-11-06T12:27:36;4.23;;;2.00;;
14251;SDS011;7210;51.502;10.722;2022-11-06T12:30:09;3.87;;;2.10;;
14251;SDS011;7210;51.502;10.722;2022-11-06T12:32:43;2.27;;;1.80;;
14251;SDS011;7210;51.502;10.722;2022-11-06T12:35:28;2.33;;;1.70;;
14251;SDS011;7210;51.502;10.722;2022-11-06T12:38:06;5.23;;;1.73;;
14251;SDS011;7210;51.502;10.722;2022-11-06T12:40:46;2.47;;;1.60;;
14251;SDS011;7210;51.502;10.722;2022-11-06T12:43:24;5.50;;;1.83;;
14251;SDS011;7210;51.502;10.722;2022-11-06T12:46:16;1.60;;;1.50;;
14251;SDS011;7210;51.502;10.722;2022-11-06T12:52:26;6.53;;;1.50;;
14251;SDS011;7210;51.502;10.722;2022-11-06T12:55:13;2.90;;;1.50;;
14251;SDS011;7210;51.502;10.722;2022-11-06T12:57:53;3.50;;;1.80;;
14251;SDS011;7210;51.502;10.722;2022-11-06T13:00:47;2.37;;;1.90;;
14251;SDS011;7210;51.502;10.722;2022-11-06T13:03:37;2.53;;;1.40;;
14251;SDS011;7210;51.502;10.722;2022-11-06T13:06:55;1.90;;;1.53;;
14251;SDS011;7210;51.502;10.722;2022-11-06T13:09:48;2.30;;;1.43;;
14251;SDS011;7210;51.502;10.722;2022-11-06T13:12:38;2.20;;;1.63;;
14251;SDS011;7210;51.502;10.722;2022-11-06T13:15:22;2.67;;;1.60;;
14251;SDS011;7210;51.502;10.722;2022-11-06T13:17:59;3.43;;;1.70;;
14251;SDS011;7210;51.502;10.722;2022-11-06T13:20:42;2.13;;;1.40;;
14251;SDS011;7210;51.502;10.722;2022-11-06T13:23:24;3.20;;;1.57;;
14251;SDS011;7210;51.502;10.722;2022-11-06T13:26:00;2.60;;;1.57;;
14251;SDS011;7210;51.502;10.722;2022-11-06T13:28:38;3.03;;;1.73;;
14251;SDS011;7210;51.502;10.722;2022-11-06T13:31:11;2.37;;;1.70;;
14251;SDS011;7210;51.502;10.722;2022-11-06T13:33:49;3.00;;;2.00;;
14251;SDS011;7210;51.502;10.722;2022-11-06T13:36:22;3.13;;;1.80;;
14251;SDS011;7210;51.502;10.722;2022-11-06T13:38:55;1.87;;;1.77;;
14251;SDS011;7210;51.502;10.722;2022-11-06T13:41:31;3.03;;;1.90;;
14251;SDS011;7210;51.502;10.722;2022-11-06T13:44:05;2.10;;;1.50;;
14251;SDS011;7210;51.502;10.722;2022-11-06T13:46:45;2.27;;;1.63;;
14251;SDS011;7210;51.502;10.722;2022-11-06T13:49:25;2.30;;;1.80;;
14251;SDS011;7210;51.502;10.722;2022-11-06T13:52:02;2.30;;;1.60;;
14251;SDS011;7210;51.502;10.722;2022-11-06T13:54:43;1.97;;;1.50;;
14251;SDS011;7210;51.502;10.722;2022-11-06T14:00:39;2.07;;;1.70;;
14251;SDS011;7210;51.502;10.722;2022-11-06T14:03:33;1.67;;;1.40;;
14251;SDS011;7210;51.502;10.722;2022-11-06T14:06:42;2.07;;;1.83;;
14251;SDS011;7210;51.502;10.722;2022-11-06T14:09:12;2.40;;;1.60;;
14251;SDS011;7210;51.502;10.722;2022-11-06T14:11:50;2.53;;;1.70;;
14251;SDS011;7210;51.502;10.722;2022-11-06T14:14:24;3.60;;;1.80;;
14251;SDS011;7210;51.502;10.722;2022-11-06T14:20:03;3.77;;;1.90;;
14251;SDS011;7210;51.502;10.722;2022-11-06T14:22:53;2.40;;;1.67;;
14251;SDS011;7210;51.502;10.722;2022-11-06T14:28:28;4.47;;;2.10;;
14251;SDS011;7210;51.502;10.722;2022-11-06T14:30:58;3.73;;;1.80;;
14251;SDS011;7210;51.502;10.722;2022-11-06T14:36:26;2.67;;;2.20;;
14251;SDS011;7210;51.502;10.722;2022-11-06T14:38:57;3.40;;;2.10;;
14251;SDS011;7210;51.502;10.722;2022-11-06T14:44:25;2.37;;;1.87;;
14251;SDS011;7210;51.502;10.722;2022-11-06T14:47:21;4.30;;;2.57;;
14251;SDS011;7210;51.502;10.722;2022-11-06T14:50:01;2.63;;;2.40;;
14251;SDS011;7210;51.502;10.722;2022-11-06T14:52:48;6.10;;;2.43;;
14251;SDS011;7210;51.502;10.722;2022-11-06T14:55:25;4.43;;;2.47;;
14251;SDS011;7210;51.502;10.722;2022-11-06T14:57:58;3.50;;;2.13;;
14251;SDS011;7210;51.502;10.722;2022-11-06T15:00:46;3.37;;;2.10;;
14251;SDS011;7210;51.502;10.722;2022-11-06T15:03:19;3.93;;;2.03;;
14251;SDS011;7210;51.502;10.722;2022-11-06T15:05:56;2.90;;;1.80;;
14251;SDS011;7210;51.502;10.722;2022-11-06T15:17:26;2.23;;;1.80;;
14251;SDS011;7210;51.502;10.722;2022-11-06T15:20:13;1.83;;;1.73;;
14251;SDS011;7210;51.502;10.722;2022-11-06T15:22:56;4.43;;;2.23;;
14251;SDS011;7210;51.502;10.722;2022-11-06T15:25:32;3.00;;;1.90;;
14251;SDS011;7210;51.502;10.722;2022-11-06T15:28:01;3.17;;;1.80;;
14251;SDS011;7210;51.502;10.722;2022-11-06T15:30:40;4.90;;;1.87;;
14251;SDS011;7210;51.502;10.722;2022-11-06T15:33:16;2.20;;;2.00;;
14251;SDS011;7210;51.502;10.722;2022-11-06T15:35:54;4.13;;;1.73;;
14251;SDS011;7210;51.502;10.722;2022-11-06T15:38:34;3.73;;;2.10;;
14251;SDS011;7210;51.502;10.722;2022-11-06T15:41:10;4.97;;;2.27;;
14251;SDS011;7210;51.502;10.722;2022-11-06T15:43:43;4.13;;;2.33;;
14251;SDS011;7210;51.502;10.722;2022-11-06T15:46:15;2.03;;;1.93;;
14251;SDS011;7210;51.502;10.722;2022-11-06T15:48:48;2.60;;;2.00;;
14251;SDS011;7210;51.502;10.722;2022-11-06T15:51:48;2.27;;;2.07;;
14251;SDS011;7210;51.502;10.722;2022-11-06T15:54:34;2.40;;;1.93;;
14251;SDS011;7210;51.502;10.722;2022-11-06T15:57:06;2.13;;;1.93;;
14251;SDS011;7210;51.502;10.722;2022-11-06T15:59:43;3.70;;;1.87;;
14251;SDS011;7210;51.502;10.722;2022-11-06T16:02:13;3.73;;;1.70;;